A- A+ FrançaisEnglishEspañol中国

le plus proche LFBT Tarbes-Lourdes-PyrénéesLFOT Tours-St-Symphorien LFQY Saverne-Steinbourg LFPV Villacoublay-Velizy

manche à air

La météo aéronautique pour les pilotes, la préparation du vol avec les METAR (METeorological Aerodrome Report, message d'observation des conditions météorologiques pour l'aviation) et Les TAF (Terminal Aerodrome Forecast : message de prévision à court terme des conditions météorologiques pour l'aviation). Et les autres ressources comme les VAC (Visual Approch Chart) et les NOTAM (Notice To Airman) pour préprer les vols.

Aéroport Humberside (Royaume-Uni) / OACI EGNJ/ IATA HUY

L'altitude de l'aéroport Humberside est de 37 m=121 ft. Il est situé à proximité de Grimsby (Royaume-Uni). La météo générale à 5 jours est disponible pour Kirmington situé à 1.8 km.

METAR de l'aéroport Humberside - EGNJ

EGNJ 030620Z 30013KT 6000 DZ SCT003 BKN012 09/07 Q1011

Décodage du METAR de l'aéroport Humberside (GB)

METAR émis par EGNJ le vendredi 3 janvier 2020 à 06:20 heure TU. Attention ce METAR est obsolète car il a été émis il y a 21 heure et 3 minutes.

La visibilité est de 6 km=3.7 sm.

La température est de 9°C=48 °F et le point rosée est de 7°C=45 °F . Ce qui correspond à 87% d'humidité relative.

Le QNH est de 1011 hPa=29.85 inHg

Vent de 13 kt=24 km/h, orienté à 300°.

Nuages : Nuages épars à 300 ft=90 mètres. Couverture nuageuse fragmentée à 1200 ft=370 mètres.

DZ

TAF de l'aéroport Humberside - EGNJ

EGNJ 030502Z 0306/0315 22008KT 9999 SCT025 BECMG 0306/0309 32012KT TEMPO 0306/0309 8000 BKN010 PROB30 TEMPO 0306/0309 4000 RA BKN008

EGNJ 030502Z 0306/0315 22008KT 9999 nuages épars à 025 devenant 0306/0309 32012KT temporairement 0306/0309 8000 couverture nuageuse fragmentée à 010 probabilité de 30% d'avoir temporairement 0306/0309 4000 pluie couverture nuageuse fragmentée à 008

Aéroport à proximité de Humberside

Météo générale à 5 jours à Kirmington (1.8 km)EGNW Aéroport Wickenby (29 km)EGCS Aéroport Sturgate (31 km)EGXP Aéroport Scampton (32 km)EGCF Aéroport Sandtoft (34 km)EGNY Aéroport Beverley (36 km)EGCG Aéroport Strubby Hel (45 km)

Vue aérienne de l'aéroport Humberside

NOTAM de l'aéroport Humberside

Les NOTAM sont fournis sans aucune garantie de leur actualité. Le pilote est le seul responsable de la vérification de sa validité avant de l'utiliser opérationnellement pour préparer un vol ou l'utiliser lors de sa navigation.

Pas de NOTAM

Sources des données